createdAt,value
2022-11-04T00:00:48.590Z,60.63
2022-11-04T00:03:39.782Z,50.78
2022-11-04T00:06:23.649Z,48.20
2022-11-04T00:09:29.249Z,48.75
2022-11-04T00:16:00.514Z,52.30
2022-11-04T00:19:50.445Z,52.90
2022-11-04T00:27:09.157Z,47.65
2022-11-04T00:41:45.858Z,47.03
2022-11-04T00:51:46.360Z,48.38
2022-11-04T00:58:08.630Z,52.08
2022-11-04T01:01:14.685Z,55.85
2022-11-04T01:04:31.230Z,51.72
2022-11-04T01:21:09.993Z,48.20
2022-11-04T01:24:02.841Z,45.92
2022-11-04T01:27:36.917Z,48.50
2022-11-04T01:34:53.629Z,51.78
2022-11-04T01:37:29.126Z,47.42
2022-11-04T01:40:29.573Z,47.58
2022-11-04T01:44:53.523Z,48.10
2022-11-04T01:48:29.223Z,48.08
2022-11-04T01:51:22.374Z,51.47
2022-11-04T01:58:15.751Z,46.33
2022-11-04T02:01:05.204Z,46.50
2022-11-04T02:08:12.195Z,46.47
2022-11-04T02:12:13.985Z,49.38
2022-11-04T02:20:10.170Z,47.60
2022-11-04T02:23:20.577Z,48.33
2022-11-04T02:26:54.370Z,50.58
2022-11-04T02:34:08.563Z,46.55
2022-11-04T02:37:35.278Z,46.47
2022-11-04T02:44:56.827Z,48.53
2022-11-04T02:47:35.210Z,49.22
2022-11-04T02:55:28.610Z,51.88
2022-11-04T02:59:08.444Z,49.38
2022-11-04T03:05:34.537Z,47.55
2022-11-04T03:08:20.053Z,55.30
2022-11-04T03:11:08.094Z,52.00
2022-11-04T03:18:12.044Z,47.30
2022-11-04T03:20:53.015Z,47.28
2022-11-04T03:24:03.768Z,48.17
2022-11-04T03:27:43.735Z,46.83
2022-11-04T03:31:12.465Z,47.83
2022-11-04T03:34:33.797Z,47.00
2022-11-04T03:41:27.275Z,47.25
2022-11-04T03:45:16.252Z,44.50
2022-11-04T03:48:26.476Z,45.20
2022-11-04T03:51:11.601Z,45.00
2022-11-04T03:54:05.732Z,55.33
2022-11-04T04:02:17.400Z,41.17
2022-11-04T04:05:34.297Z,40.08
2022-11-04T04:09:01.636Z,40.75
2022-11-04T04:12:10.347Z,44.05
2022-11-04T04:22:42.430Z,42.33
2022-11-04T04:26:17.067Z,43.15
2022-11-04T04:29:41.287Z,42.83
2022-11-04T04:32:31.217Z,42.95
2022-11-04T04:35:24.150Z,47.55
2022-11-04T04:38:22.636Z,41.65
2022-11-04T04:45:08.339Z,40.95
2022-11-04T04:52:02.581Z,38.03
2022-11-04T04:55:30.802Z,37.40
2022-11-04T04:58:19.630Z,38.83
2022-11-04T05:08:09.061Z,37.38
2022-11-04T05:10:47.382Z,36.97
2022-11-04T05:20:24.757Z,38.53
2022-11-04T05:23:56.408Z,38.20
2022-11-04T05:33:55.260Z,34.63
2022-11-04T05:37:07.715Z,37.85
2022-11-04T05:39:48.318Z,36.40
2022-11-04T05:42:53.120Z,35.30
2022-11-04T05:46:46.800Z,41.85
2022-11-04T05:49:26.241Z,49.42
2022-11-04T05:52:26.148Z,37.13
2022-11-04T05:56:03.334Z,41.75
2022-11-04T06:02:21.252Z,37.90
2022-11-04T06:05:15.025Z,34.97
2022-11-04T06:08:07.380Z,37.92
2022-11-04T06:10:49.874Z,39.70
2022-11-04T06:17:15.413Z,36.50
2022-11-04T06:20:04.032Z,36.95
2022-11-04T06:22:54.826Z,35.20
2022-11-04T06:25:35.236Z,35.60
2022-11-04T06:28:53.787Z,35.70
2022-11-04T06:34:34.465Z,36.45
2022-11-04T06:37:06.472Z,33.65
2022-11-04T06:39:58.393Z,35.47
2022-11-04T06:42:38.997Z,35.03
2022-11-04T06:45:16.682Z,34.85
2022-11-04T06:48:06.199Z,36.03
2022-11-04T06:51:16.368Z,35.30
2022-11-04T06:54:22.901Z,33.65
2022-11-04T06:57:13.098Z,35.70
2022-11-04T07:00:57.520Z,33.25
2022-11-04T07:05:28.155Z,33.10
2022-11-04T07:08:27.601Z,35.42
2022-11-04T07:12:49.325Z,34.58
2022-11-04T07:15:17.522Z,36.35
2022-11-04T07:17:45.061Z,35.95
2022-11-04T07:20:41.673Z,33.72
2022-11-04T07:23:16.901Z,34.30
2022-11-04T07:26:21.904Z,35.05
2022-11-04T07:28:58.281Z,35.13
2022-11-04T07:31:29.095Z,40.25
2022-11-04T07:33:59.121Z,31.75
2022-11-04T07:36:29.232Z,34.05
2022-11-04T07:39:02.633Z,34.42
2022-11-04T07:41:54.247Z,33.95
2022-11-04T07:44:27.457Z,33.55
2022-11-04T07:47:00.137Z,30.65
2022-11-04T07:49:34.740Z,34.80
2022-11-04T07:52:07.431Z,43.15
2022-11-04T07:54:39.428Z,31.52
2022-11-04T07:57:12.028Z,33.10
2022-11-04T07:59:46.605Z,36.03
2022-11-04T08:02:25.237Z,42.63
2022-11-04T08:04:58.908Z,43.20
2022-11-04T08:07:40.996Z,42.65
2022-11-04T08:10:14.918Z,39.47
2022-11-04T08:12:56.745Z,41.08
2022-11-04T08:18:49.664Z,42.20
2022-11-04T08:21:28.285Z,40.35
2022-11-04T08:24:36.518Z,45.65
2022-11-04T08:27:10.618Z,33.72
2022-11-04T08:29:59.052Z,35.07
2022-11-04T08:32:40.375Z,33.85
2022-11-04T08:35:23.257Z,34.67
2022-11-04T08:38:01.550Z,35.25
2022-11-04T08:40:42.781Z,33.20
2022-11-04T08:43:19.395Z,31.73
2022-11-04T08:45:48.864Z,31.73
2022-11-04T08:48:25.019Z,36.70
2022-11-04T08:51:13.173Z,31.88
2022-11-04T08:53:52.360Z,29.52
2022-11-04T08:59:19.370Z,33.63
2022-11-04T09:01:51.029Z,34.53
2022-11-04T09:04:34.427Z,37.00
2022-11-04T09:07:30.827Z,34.47
2022-11-04T09:10:23.988Z,34.53
2022-11-04T09:13:01.964Z,34.97
2022-11-04T09:15:33.946Z,36.80
2022-11-04T09:18:08.249Z,33.28
2022-11-04T09:23:51.957Z,31.38
2022-11-04T09:26:31.596Z,31.98
2022-11-04T09:29:03.752Z,31.67
2022-11-04T09:35:25.590Z,32.42
2022-11-04T09:37:56.362Z,36.22
2022-11-04T09:40:26.914Z,30.58
2022-11-04T09:43:29.819Z,31.85
2022-11-04T09:46:03.013Z,32.50
2022-11-04T09:48:59.459Z,30.70
2022-11-04T09:51:53.099Z,34.33
2022-11-04T09:55:13.464Z,27.45
2022-11-04T10:02:09.643Z,27.67
2022-11-04T10:05:44.196Z,28.52
2022-11-04T10:08:55.694Z,28.50
2022-11-04T10:14:53.387Z,24.67
2022-11-04T10:17:35.281Z,27.45
2022-11-04T10:21:04.848Z,25.27
2022-11-04T10:24:10.468Z,26.20
2022-11-04T10:26:49.322Z,23.90
2022-11-04T10:30:05.365Z,30.80
2022-11-04T10:32:50.145Z,24.05
2022-11-04T10:35:46.733Z,25.13
2022-11-04T10:38:51.823Z,25.30
2022-11-04T10:41:40.374Z,23.38
2022-11-04T10:44:31.757Z,37.70
2022-11-04T10:47:20.106Z,24.75
2022-11-04T10:50:30.495Z,39.53
2022-11-04T10:53:25.348Z,32.35
2022-11-04T10:56:59.783Z,26.92
2022-11-04T11:00:04.541Z,69.88
2022-11-04T11:02:50.907Z,47.05
2022-11-04T11:08:59.247Z,28.80
2022-11-04T11:11:54.584Z,27.75
2022-11-04T11:14:56.078Z,33.08
2022-11-04T11:18:08.853Z,29.63
2022-11-04T11:20:52.902Z,30.48
2022-11-04T11:24:04.318Z,25.05
2022-11-04T11:27:15.292Z,24.48
2022-11-04T11:32:46.655Z,30.30
2022-11-04T11:35:17.938Z,25.35
2022-11-04T11:37:49.178Z,24.85
2022-11-04T11:40:32.552Z,24.13
2022-11-04T11:43:06.149Z,24.10
2022-11-04T11:45:52.555Z,25.00
2022-11-04T11:48:43.260Z,26.23
2022-11-04T11:51:20.064Z,24.52
2022-11-04T11:54:25.592Z,29.58
2022-11-04T11:57:15.404Z,25.98
2022-11-04T12:03:00.864Z,24.02
2022-11-04T12:09:18.102Z,26.67
2022-11-04T12:12:01.044Z,25.30
2022-11-04T12:15:15.105Z,34.83
2022-11-04T12:17:55.087Z,26.67
2022-11-04T12:20:36.448Z,30.40
2022-11-04T12:23:45.997Z,27.25
2022-11-04T12:26:34.209Z,25.17
2022-11-04T12:29:31.364Z,36.47
2022-11-04T12:32:29.444Z,36.67
2022-11-04T12:35:27.180Z,29.63
2022-11-04T12:38:34.237Z,28.92
2022-11-04T12:41:42.239Z,26.33
2022-11-04T12:44:23.251Z,26.35
2022-11-04T12:47:28.470Z,23.63
2022-11-04T12:50:43.296Z,26.08
2022-11-04T12:53:52.832Z,31.60
2022-11-04T12:56:41.504Z,23.83
2022-11-04T12:59:24.512Z,22.25
2022-11-04T13:02:06.355Z,23.27
2022-11-04T13:04:52.989Z,24.23
2022-11-04T13:07:54.645Z,40.80
2022-11-04T13:11:25.359Z,25.13
2022-11-04T13:14:34.023Z,24.20
2022-11-04T13:17:20.562Z,23.73
2022-11-04T13:23:20.036Z,25.95
2022-11-04T13:26:20.663Z,28.50
2022-11-04T13:29:21.132Z,33.53
2022-11-04T13:32:25.971Z,31.77
2022-11-04T13:35:36.982Z,56.75
2022-11-04T13:38:25.421Z,30.30
2022-11-04T13:41:36.294Z,30.63
2022-11-04T13:44:24.800Z,39.47
2022-11-04T13:47:03.861Z,28.13
2022-11-04T13:49:38.717Z,26.70
2022-11-04T13:53:02.771Z,24.08
2022-11-04T13:56:31.701Z,23.98
2022-11-04T13:59:38.749Z,27.60
2022-11-04T14:02:48.300Z,38.65
2022-11-04T14:06:09.097Z,29.80
2022-11-04T14:09:29.835Z,40.22
2022-11-04T14:12:48.638Z,29.17
2022-11-04T14:16:34.570Z,30.42
2022-11-04T14:19:46.993Z,38.53
2022-11-04T14:22:35.402Z,28.45
2022-11-04T14:25:42.263Z,27.63
2022-11-04T14:28:32.387Z,29.38
2022-11-04T14:31:36.633Z,28.20
2022-11-04T14:34:35.570Z,30.13
2022-11-04T14:37:19.702Z,30.02
2022-11-04T14:39:58.998Z,30.52
2022-11-04T14:42:51.640Z,29.73
2022-11-04T14:45:24.731Z,28.80
2022-11-04T14:48:02.543Z,31.48
2022-11-04T14:50:42.804Z,32.35
2022-11-04T14:53:41.296Z,37.00
2022-11-04T14:56:35.008Z,34.88
2022-11-04T14:59:33.854Z,33.20
2022-11-04T15:02:05.422Z,37.08
2022-11-04T15:04:34.391Z,34.85
2022-11-04T15:07:05.110Z,38.83
2022-11-04T15:10:05.208Z,35.58
2022-11-04T15:12:56.837Z,31.70
2022-11-04T15:16:10.138Z,29.45
2022-11-04T15:18:54.061Z,37.90
2022-11-04T15:21:37.077Z,32.08
2022-11-04T15:24:27.251Z,31.13
2022-11-04T15:27:06.104Z,32.60
2022-11-04T15:29:34.575Z,31.17
2022-11-04T15:32:05.698Z,37.22
2022-11-04T15:34:34.477Z,30.98
2022-11-04T15:37:05.546Z,37.25
2022-11-04T15:39:37.916Z,33.28
2022-11-04T15:42:40.458Z,32.40
2022-11-04T15:45:35.207Z,37.25
2022-11-04T15:48:38.672Z,33.28
2022-11-04T15:51:25.621Z,33.72
2022-11-04T15:54:07.136Z,31.25
2022-11-04T15:56:45.719Z,35.63
2022-11-04T15:59:18.996Z,32.97
2022-11-04T16:01:52.821Z,31.92
2022-11-04T16:04:25.444Z,33.47
2022-11-04T16:07:22.561Z,33.50
2022-11-04T16:10:08.467Z,32.92
2022-11-04T16:12:40.302Z,33.40
2022-11-04T16:15:58.242Z,32.30
2022-11-04T16:18:48.718Z,32.63
2022-11-04T16:22:24.490Z,30.38
2022-11-04T16:25:03.713Z,53.05
2022-11-04T16:27:41.853Z,30.88
2022-11-04T16:30:24.735Z,30.65
2022-11-04T16:32:55.699Z,29.17
2022-11-04T16:35:43.234Z,28.42
2022-11-04T16:38:10.767Z,31.02
2022-11-04T16:40:38.337Z,31.20
2022-11-04T16:43:08.543Z,30.63
2022-11-04T16:45:38.825Z,28.35
2022-11-04T16:48:08.416Z,29.08
2022-11-04T16:50:36.022Z,29.70
2022-11-04T16:53:03.818Z,34.78
2022-11-04T16:55:33.709Z,29.23
2022-11-04T16:58:05.271Z,35.30
2022-11-04T17:00:36.540Z,38.78
2022-11-04T17:03:22.882Z,45.40
2022-11-04T17:05:57.118Z,32.35
2022-11-04T17:10:54.304Z,65.57
2022-11-04T17:17:19.432Z,61.35
2022-11-04T17:19:54.349Z,40.35
2022-11-04T17:23:43.344Z,41.03
2022-11-04T17:26:42.593Z,39.83
2022-11-04T17:29:17.488Z,33.47
2022-11-04T17:31:57.012Z,36.03
2022-11-04T17:34:50.846Z,33.17
2022-11-04T17:37:20.073Z,34.35
2022-11-04T17:39:56.351Z,34.70
2022-11-04T17:43:14.322Z,33.15
2022-11-04T17:45:54.522Z,37.00
2022-11-04T17:48:23.376Z,36.03
2022-11-04T17:50:50.831Z,39.30
2022-11-04T17:53:22.591Z,52.00
2022-11-04T17:55:51.667Z,45.65
2022-11-04T17:58:22.744Z,48.35
2022-11-04T18:01:06.087Z,34.38
2022-11-04T18:03:34.714Z,35.03
2022-11-04T18:06:02.439Z,36.83
2022-11-04T18:08:31.225Z,35.00
2022-11-04T18:11:00.749Z,45.58
2022-11-04T18:13:31.071Z,39.45
2022-11-04T18:16:15.432Z,32.92
2022-11-04T18:18:43.449Z,34.55
2022-11-04T18:21:14.814Z,31.25
2022-11-04T18:23:45.836Z,33.58
2022-11-04T18:26:16.085Z,32.40
2022-11-04T18:28:43.581Z,52.25
2022-11-04T18:31:13.414Z,32.13
2022-11-04T18:33:46.086Z,32.90
2022-11-04T18:36:16.058Z,31.77
2022-11-04T18:38:44.789Z,34.10
2022-11-04T18:41:14.113Z,32.15
2022-11-04T18:43:46.218Z,31.52
2022-11-04T18:46:16.316Z,31.23
2022-11-04T18:48:50.329Z,29.92
2022-11-04T18:51:20.800Z,29.50
2022-11-04T18:53:49.331Z,31.50
2022-11-04T18:56:21.903Z,29.35
2022-11-04T18:58:50.211Z,35.97
2022-11-04T19:01:23.920Z,29.42
2022-11-04T19:03:55.083Z,29.42
2022-11-04T19:06:27.651Z,32.60
2022-11-04T19:09:04.940Z,30.23
2022-11-04T19:11:43.899Z,30.50
2022-11-04T19:14:22.007Z,29.13
2022-11-04T19:17:01.237Z,29.35
2022-11-04T19:19:48.308Z,29.33
2022-11-04T19:22:28.818Z,28.95
2022-11-04T19:24:57.299Z,28.45
2022-11-04T19:27:33.223Z,41.28
2022-11-04T19:30:25.958Z,29.27
2022-11-04T19:33:45.484Z,39.30
2022-11-04T19:36:27.254Z,28.45
2022-11-04T19:39:13.603Z,28.90
2022-11-04T19:42:17.680Z,28.27
2022-11-04T19:44:49.296Z,26.55
2022-11-04T19:47:19.438Z,31.38
2022-11-04T19:49:47.209Z,33.30
2022-11-04T19:52:18.170Z,33.05
2022-11-04T19:54:50.822Z,35.33
2022-11-04T19:57:18.548Z,33.47
2022-11-04T19:59:47.253Z,33.95
2022-11-04T20:02:15.866Z,29.73
2022-11-04T20:04:44.588Z,33.83
2022-11-04T20:07:14.431Z,29.67
2022-11-04T20:09:43.748Z,28.10
2022-11-04T20:12:32.472Z,27.08
2022-11-04T20:15:43.241Z,29.15
2022-11-04T20:18:16.570Z,28.50
2022-11-04T20:20:53.581Z,27.48
2022-11-04T20:23:24.639Z,25.55
2022-11-04T20:25:55.062Z,26.15
2022-11-04T20:28:25.417Z,23.65
2022-11-04T20:30:57.504Z,27.60
2022-11-04T20:33:25.129Z,25.25
2022-11-04T20:36:09.786Z,23.50
2022-11-04T20:38:44.543Z,24.48
2022-11-04T20:41:24.923Z,25.23
2022-11-04T20:43:57.513Z,24.45
2022-11-04T20:46:34.155Z,29.60
2022-11-04T20:49:11.569Z,33.33
2022-11-04T20:51:50.330Z,23.98
2022-11-04T20:59:11.108Z,44.50
2022-11-04T21:02:56.549Z,32.03
2022-11-04T21:06:08.420Z,26.58
2022-11-04T21:09:53.491Z,26.77
2022-11-04T21:12:52.772Z,25.80
2022-11-04T21:19:51.958Z,32.67
2022-11-04T21:23:22.415Z,25.63
2022-11-04T21:26:11.389Z,28.40
2022-11-04T21:29:11.762Z,23.17
2022-11-04T21:32:31.078Z,23.42
2022-11-04T21:36:23.041Z,24.67
2022-11-04T21:39:34.311Z,24.33
2022-11-04T21:47:33.714Z,23.80
2022-11-04T21:50:31.277Z,24.05
2022-11-04T21:53:01.151Z,24.35
2022-11-04T21:56:11.299Z,24.63
2022-11-04T21:58:43.453Z,25.52
2022-11-04T22:02:04.088Z,23.02
2022-11-04T22:04:49.100Z,22.80
2022-11-04T22:17:14.892Z,27.00
2022-11-04T22:20:15.347Z,25.30
2022-11-04T22:23:22.764Z,25.17
2022-11-04T22:26:44.036Z,24.13
2022-11-04T22:33:01.316Z,25.27
2022-11-04T22:39:17.149Z,23.20
2022-11-04T22:42:02.961Z,21.30
2022-11-04T22:44:39.677Z,20.35
2022-11-04T22:47:24.593Z,20.65
2022-11-04T22:50:40.726Z,20.25
2022-11-04T22:54:08.140Z,19.38
2022-11-04T22:57:28.294Z,20.48
2022-11-04T23:00:10.099Z,20.55
2022-11-04T23:02:55.455Z,19.02
2022-11-04T23:06:06.304Z,19.13
2022-11-04T23:09:21.373Z,18.80
2022-11-04T23:15:34.596Z,20.05
2022-11-04T23:18:33.992Z,19.55
2022-11-04T23:21:34.963Z,19.50
2022-11-04T23:24:41.116Z,29.55
2022-11-04T23:28:09.247Z,19.17
2022-11-04T23:31:19.431Z,19.25
2022-11-04T23:34:16.335Z,19.48
2022-11-04T23:37:23.359Z,20.73
2022-11-04T23:40:44.301Z,24.10
2022-11-04T23:43:41.433Z,19.08
2022-11-04T23:46:43.446Z,17.35
2022-11-04T23:56:46.327Z,16.55
2022-11-04T23:59:41.854Z,15.65
